Alabaster, Alabama
Current Conditions -  °F | °C
As of 10:53 AM on Thursday 23 Oct 2014 (Local Time) from KEET Reporting Station
Clear Clear  
Wind Chill: 61°   Ceiling: Unl
Heat Index: 61°   Visibility: 10mi
Dew Point: 45°   Wind: 3mph
Humidity: 56%   Direction: NA
Pressure: 30.17"   Gusts: NA
Location:  33.25°N, 86.82°W
Report Text: KEET 231553Z AUTO VRB03KT 10SM CLR 16/07 A3017 RMK AO2 SLP214 T01610072
Loading
Personal Weather Stations






























Interactive Weather Map
Tropical Storm Tracking
New forecast layout! Learn more

10-Day Weather Forecast

Advertisements
Track Severe Weather on mobile